• Join FlightAware (Why Join?)
  • Login
  • US Flag 
08:10PM EST


 

Airport Tracker/Info


-or-


 

Live Flight TrackerFlight Track Log ✈ CES2375 ✈ 11-Jul-2014 ✈ ZLXY / XIY - ZLGM / GOQ

Flight Track Log - Related Links

Times and Time Zones

All times are in EDT time to prevent confusion due to time zone crossing. See the CES2375 flight status page for this flight to view local times or setup timezone preferences in your user account.

Time Position Orientation Groundspeed Altitude Reporting Facility
EDT Latitude Longitude Course Direction KTS MPH feet Rate Location/Type
02:22AM 35.9819 99.0693 284° West  Level Estimated
02:23AM 35.9973 98.9361 278° West  Level Estimated
02:24AM 36.0125 98.8029 278° West  Level Estimated
02:25AM 36.0276 98.6696 278° West  Level Estimated
02:26AM 36.0425 98.5363 278° West  Level Estimated
02:27AM 36.0573 98.4029 278° West  Level Estimated
02:28AM 36.0719 98.2695 278° West  Level Estimated
02:29AM 36.0864 98.1360 278° West  Level Estimated
02:30AM 36.1007 98.0025 278° West  Level Estimated
02:31AM 36.1149 97.8689 278° West  Level Estimated
02:32AM 36.1290 97.7353 277° West  Level Estimated
02:33AM 36.1429 97.6016 277° West  Level Estimated
02:34AM 36.1566 97.4679 277° West  Level Estimated
02:35AM 36.1702 97.3342 277° West  Level Estimated
02:36AM 36.1837 97.2004 277° West  Level Estimated
02:37AM 36.1970 97.0665 277° West  Level Estimated
02:38AM 36.2101 96.9326 277° West  Level Estimated
02:39AM 36.2231 96.7987 277° West  Level Estimated
02:40AM 36.2360 96.6647 277° West  Level Estimated
02:41AM 36.2487 96.5307 277° West  Level Estimated
02:42AM 36.2612 96.3966 277° West  Level Estimated
02:43AM 36.2736 96.2625 277° West  Level Estimated
02:44AM 36.2859 96.1283 277° West  Level Estimated
02:45AM 36.2980 95.9941 276° West  Level Estimated
02:46AM 36.3099 95.8599 276° West  Level Estimated
02:47AM 36.3217 95.7256 276° West  Level Estimated
02:48AM 36.3334 95.5913 276° West  Level Estimated
02:49AM 36.3449 95.4569 276° West  Level Estimated
02:50AM 36.3562 95.3225 276° West  Level Estimated
02:51AM 36.3674 95.1881 276° West  Level Estimated
02:52AM 36.3785 95.0536 276° West  Level Estimated
02:53AM 36.3894 94.9191 276° West  Level Estimated
02:54AM 36.4000 94.7861 276° West  Level Estimated
02:55AM 36.4000 94.7861 North  Level Estimated
02:56AM 36.4000 94.7861 North  Level Estimated
02:57AM 36.4000 94.7861 North  Level Estimated
02:58AM 36.4000 94.7861 North  Level Estimated
02:59AM 36.4000 94.7861 North  Level Estimated
03:00AM 36.4000 94.7861 North  Level Estimated
03:01AM 36.4000 94.7861 North  Level Estimated
03:02AM 36.4000 94.7861 North  Level Estimated
03:03AM 36.4000 94.7861 North  Level Estimated
03:04AM 36.4000 94.7861 North  Level Estimated
03:05AM 36.4000 94.7861 North  Level Estimated
03:06AM 36.4000 94.7861 North  Level Estimated
03:07AM 36.4000 94.7861 North  Level Estimated
03:08AM 36.4000 94.7861 North  Level Estimated
03:09AM 36.4000 94.7861 North  Level Estimated
03:10AM 36.4000 94.7861 North  Level Estimated